createdAt,value
2023-02-19T00:24:12.462Z,3.3
2023-02-19T00:54:13.295Z,3.3
2023-02-19T01:24:14.928Z,3
2023-02-19T01:54:14.052Z,3.6
2023-02-19T02:24:38.206Z,3.9
2023-02-19T02:54:26.936Z,3.2
2023-02-19T03:24:26.602Z,2.7
2023-02-19T03:54:17.356Z,2.5
2023-02-19T04:24:18.537Z,2.6
2023-02-19T04:54:17.067Z,3
2023-02-19T05:24:17.075Z,2.8
2023-02-19T05:54:18.199Z,3.2
2023-02-19T06:24:18.752Z,3
2023-02-19T06:54:19.516Z,2.7
2023-02-19T07:24:21.401Z,3
2023-02-19T07:54:21.448Z,3.4
2023-02-19T08:24:22.552Z,3.1
2023-02-19T08:54:25.040Z,2.7
2023-02-19T09:24:24.575Z,1.9
2023-02-19T09:54:28.631Z,1.5
2023-02-19T10:24:29.112Z,1.8
2023-02-19T10:54:29.936Z,1.5
2023-02-19T11:24:33.671Z,1
2023-02-19T11:54:44.452Z,0.8
2023-02-19T12:24:43.712Z,0.7
2023-02-19T12:54:33.093Z,0.8
2023-02-19T13:24:36.210Z,0.7
2023-02-19T13:54:35.747Z,0.6
2023-02-19T14:24:33.611Z,0.7
2023-02-19T14:54:43.553Z,0.7
2023-02-19T15:27:47.448Z,0.6
2023-02-19T15:57:48.403Z,0.6
2023-02-19T16:27:48.102Z,0.5
2023-02-19T16:57:46.016Z,0.6
2023-02-19T17:27:46.506Z,0.8
2023-02-19T17:57:48.520Z,0.5
2023-02-19T18:27:53.119Z,1
2023-02-19T18:57:50.213Z,1.3
2023-02-19T19:27:51.592Z,1.1
2023-02-19T19:57:50.041Z,1.2
2023-02-19T20:27:54.704Z,1.2
2023-02-19T20:57:57.198Z,1.3
2023-02-19T21:27:51.360Z,2.1
2023-02-19T21:57:51.833Z,3.8
2023-02-19T22:27:58.426Z,5
2023-02-19T22:57:56.641Z,4.9
2023-02-19T23:27:53.273Z,4.5
2023-02-19T23:57:56.299Z,5
